Time;durP1;ratioP1;P1;durP2;ratioP2;P2;SDS_P1;SDS_P2;PMS_P1;PMS_P2;Temp;Humidity;BMP_temperature;BMP_pressure;BME280_temperature;BME280_humidity;BME280_pressure;Samples;Min_cycle;Max_cycle;Signal;HPM_P1;HPM_P2
2022/09/08 00:00:38;;;;;;;31.02;28.00;;;;;;;;;;5015789;28;20095;-74
2022/09/08 00:03:05;;;;;;;30.80;27.90;;;;;;;;;;5013816;28;20117;-74
2022/09/08 00:05:33;;;;;;;30.58;27.88;;;;;;;;;;5009700;28;20041;-74
2022/09/08 00:08:00;;;;;;;30.38;27.38;;;;;;;;;;5008336;28;20045;-74
2022/09/08 00:10:26;;;;;;;29.95;26.85;;;;;;;;;;5009637;28;20049;-74
2022/09/08 00:12:53;;;;;;;30.33;27.45;;;;;;;;;;5009739;28;20571;-75
2022/09/08 00:15:20;;;;;;;29.77;27.05;;;;;;;;;;4994152;28;20049;-74
2022/09/08 00:17:46;;;;;;;29.58;26.83;;;;;;;;;;4992276;28;20053;-74
2022/09/08 00:20:13;;;;;;;29.15;26.60;;;;;;;;;;5008398;28;20105;-75
2022/09/08 00:22:39;;;;;;;29.20;26.60;;;;;;;;;;5010929;28;20045;-75
2022/09/08 00:25:05;;;;;;;32.10;29.23;;;;;;;;;;5009068;28;20353;-75
2022/09/08 00:27:31;;;;;;;31.67;28.77;;;;;;;;;;5013895;28;20466;-75
2022/09/08 00:29:57;;;;;;;32.42;29.40;;;;;;;;;;5011001;28;20097;-74
2022/09/08 00:32:23;;;;;;;32.03;29.02;;;;;;;;;;5009975;28;20169;-74
2022/09/08 00:34:50;;;;;;;32.13;29.38;;;;;;;;;;5008212;28;20131;-74
2022/09/08 00:37:18;;;;;;;34.90;31.77;;;;;;;;;;5009971;28;20042;-74
2022/09/08 00:39:44;;;;;;;33.25;30.08;;;;;;;;;;5009260;28;20053;-74
2022/09/08 00:42:10;;;;;;;32.08;29.25;;;;;;;;;;4990699;28;20630;-74
2022/09/08 00:44:38;;;;;;;33.25;30.15;;;;;;;;;;5008859;28;20065;-74
2022/09/08 00:47:06;;;;;;;34.08;31.08;;;;;;;;;;5009331;28;20448;-75
2022/09/08 00:49:32;;;;;;;36.42;33.05;;;;;;;;;;5008470;28;20045;-74
2022/09/08 00:51:58;;;;;;;35.95;32.58;;;;;;;;;;5009590;28;20033;-75
2022/09/08 00:54:25;;;;;;;35.10;31.83;;;;;;;;;;5009188;28;20046;-74
2022/09/08 00:56:51;;;;;;;36.03;32.53;;;;;;;;;;5012385;28;20042;-75
2022/09/08 00:59:19;;;;;;;36.20;32.92;;;;;;;;;;5015986;28;20518;-74
2022/09/08 01:01:45;;;;;;;35.30;31.92;;;;;;;;;;5014897;28;20113;-75
2022/09/08 01:04:11;;;;;;;35.78;32.55;;;;;;;;;;5014312;28;20096;-75
2022/09/08 01:12:45;;;;;;;37.90;34.28;;;;;;;;;;5007052;28;20616;-74
2022/09/08 01:15:14;;;;;;;36.05;32.72;;;;;;;;;;5003328;28;20049;-74
2022/09/08 01:17:41;;;;;;;36.40;33.17;;;;;;;;;;4998296;28;20404;-74
2022/09/08 01:20:08;;;;;;;37.58;34.00;;;;;;;;;;5016275;28;20081;-75
2022/09/08 01:22:53;;;;;;;38.95;35.17;;;;;;;;;;5019165;28;20042;-75
2022/09/08 01:25:25;;;;;;;39.05;35.25;;;;;;;;;;5015667;28;20049;-75
2022/09/08 01:27:53;;;;;;;40.75;37.00;;;;;;;;;;5016967;28;20061;-75
2022/09/08 01:30:19;;;;;;;41.03;37.13;;;;;;;;;;5015877;28;20060;-75
2022/09/08 01:32:46;;;;;;;42.33;38.40;;;;;;;;;;5016895;28;20038;-75
2022/09/08 01:35:27;;;;;;;43.55;39.63;;;;;;;;;;5015884;28;20510;-74
2022/09/08 01:37:53;;;;;;;42.55;38.30;;;;;;;;;;5014367;28;20097;-75
2022/09/08 01:40:19;;;;;;;41.45;37.40;;;;;;;;;;5013749;28;20049;-75
2022/09/08 01:42:45;;;;;;;42.47;38.47;;;;;;;;;;5015016;28;20054;-75
2022/09/08 01:45:11;;;;;;;43.90;39.67;;;;;;;;;;5014567;28;20041;-75
2022/09/08 01:47:37;;;;;;;44.05;39.92;;;;;;;;;;5016929;28;20049;-74
2022/09/08 01:50:03;;;;;;;43.38;39.47;;;;;;;;;;5014860;28;20042;-75
2022/09/08 01:52:29;;;;;;;43.38;39.33;;;;;;;;;;5017678;28;20381;-75
2022/09/08 01:54:55;;;;;;;44.28;40.13;;;;;;;;;;5015817;28;20488;-74
2022/09/08 01:57:21;;;;;;;46.08;41.70;;;;;;;;;;5014830;28;20087;-75
2022/09/08 01:59:48;;;;;;;43.35;39.22;;;;;;;;;;5014234;28;20131;-74
2022/09/08 02:02:14;;;;;;;43.17;39.28;;;;;;;;;;5015074;28;20121;-75
2022/09/08 02:04:40;;;;;;;42.35;38.55;;;;;;;;;;5013269;28;20049;-75
2022/09/08 02:07:06;;;;;;;42.97;38.95;;;;;;;;;;4995745;28;20080;-75
2022/09/08 02:09:31;;;;;;;44.55;40.20;;;;;;;;;;5013787;28;20069;-75
2022/09/08 02:11:57;;;;;;;44.35;40.22;;;;;;;;;;4994583;28;20053;-75
2022/09/08 02:14:24;;;;;;;43.15;39.03;;;;;;;;;;5008500;28;20109;-75
2022/09/08 02:16:49;;;;;;;44.72;40.53;;;;;;;;;;5004783;28;20042;-75
2022/09/08 02:19:15;;;;;;;45.83;41.53;;;;;;;;;;5013337;28;20378;-75
2022/09/08 02:21:41;;;;;;;46.20;42.00;;;;;;;;;;5014453;28;20037;-75
2022/09/08 02:24:07;;;;;;;43.75;39.95;;;;;;;;;;4981472;28;20109;-75
2022/09/08 02:26:34;;;;;;;42.72;38.75;;;;;;;;;;5016452;28;20115;-75
2022/09/08 02:29:00;;;;;;;44.35;40.25;;;;;;;;;;5014309;28;20054;-74
2022/09/08 02:31:27;;;;;;;41.83;37.95;;;;;;;;;;4997551;28;20171;-75
2022/09/08 02:33:53;;;;;;;43.88;40.05;;;;;;;;;;5014130;28;20042;-75
2022/09/08 02:36:20;;;;;;;45.58;41.33;;;;;;;;;;5010375;28;20053;-75
2022/09/08 02:38:49;;;;;;;43.05;39.08;;;;;;;;;;5010760;28;20132;-75
2022/09/08 02:41:16;;;;;;;46.05;41.75;;;;;;;;;;5013662;28;20133;-74
2022/09/08 02:43:42;;;;;;;46.20;42.00;;;;;;;;;;5004581;28;20084;-75
2022/09/08 02:46:09;;;;;;;46.67;42.35;;;;;;;;;;5014216;28;20037;-75
2022/09/08 02:48:36;;;;;;;44.75;40.55;;;;;;;;;;5012813;28;20046;-75
2022/09/08 02:51:04;;;;;;;46.90;42.40;;;;;;;;;;5012976;28;20176;-75
2022/09/08 02:53:31;;;;;;;47.25;42.90;;;;;;;;;;5009835;28;20480;-75
2022/09/08 02:55:57;;;;;;;47.55;43.15;;;;;;;;;;5013437;28;20088;-75
2022/09/08 02:58:24;;;;;;;45.75;41.55;;;;;;;;;;5014458;28;20046;-75
2022/09/08 03:00:50;;;;;;;48.33;43.88;;;;;;;;;;5014633;28;20104;-75
2022/09/08 03:03:16;;;;;;;45.63;41.38;;;;;;;;;;5014566;28;20034;-75
2022/09/08 03:05:42;;;;;;;47.63;43.33;;;;;;;;;;5012174;28;20042;-75
2022/09/08 03:08:08;;;;;;;48.10;43.45;;;;;;;;;;5011673;28;20481;-75
2022/09/08 03:10:35;;;;;;;47.85;43.42;;;;;;;;;;5012020;28;20042;-75
2022/09/08 03:13:01;;;;;;;42.78;38.60;;;;;;;;;;5007628;28;20408;-75
2022/09/08 03:15:28;;;;;;;48.97;44.20;;;;;;;;;;5008461;28;20033;-75
2022/09/08 03:17:54;;;;;;;49.25;44.28;;;;;;;;;;5009809;28;20081;-75
2022/09/08 03:20:22;;;;;;;49.22;44.47;;;;;;;;;;5012476;28;20046;-75
2022/09/08 03:22:48;;;;;;;49.88;44.97;;;;;;;;;;5013917;28;20042;-75
2022/09/08 03:25:14;;;;;;;50.40;45.50;;;;;;;;;;5011195;28;20490;-75
2022/09/08 03:27:41;;;;;;;50.92;46.03;;;;;;;;;;4994878;28;20050;-75
2022/09/08 03:30:08;;;;;;;49.85;45.00;;;;;;;;;;5011692;28;20050;-75
2022/09/08 03:32:35;;;;;;;51.60;46.60;;;;;;;;;;4997134;28;20081;-75
2022/09/08 03:35:01;;;;;;;51.72;46.92;;;;;;;;;;5011404;28;20038;-75
2022/09/08 03:37:27;;;;;;;49.58;44.97;;;;;;;;;;5014087;28;20077;-75
2022/09/08 03:39:54;;;;;;;49.97;45.38;;;;;;;;;;5012042;28;20050;-75
2022/09/08 03:42:20;;;;;;;52.03;47.20;;;;;;;;;;5001571;28;20127;-75
2022/09/08 03:44:46;;;;;;;51.45;46.45;;;;;;;;;;4996125;28;20064;-75
2022/09/08 03:47:12;;;;;;;52.45;47.35;;;;;;;;;;5015728;28;20468;-75
2022/09/08 03:49:38;;;;;;;52.78;47.88;;;;;;;;;;5014481;28;20038;-75
2022/09/08 03:52:05;;;;;;;53.78;48.70;;;;;;;;;;5017573;28;20052;-75
2022/09/08 03:54:50;;;;;;;52.67;47.72;;;;;;;;;;5016001;28;20570;-75
2022/09/08 03:57:17;;;;;;;52.05;47.22;;;;;;;;;;4996787;28;20128;-75
2022/09/08 03:59:43;;;;;;;53.40;48.15;;;;;;;;;;5015518;28;20052;-75
2022/09/08 04:02:10;;;;;;;55.97;50.85;;;;;;;;;;5013677;28;20116;-75
2022/09/08 04:04:37;;;;;;;56.33;50.95;;;;;;;;;;5012785;28;20057;-75
2022/09/08 04:07:03;;;;;;;55.90;50.42;;;;;;;;;;5015643;28;20042;-75
2022/09/08 04:09:30;;;;;;;54.53;49.40;;;;;;;;;;5015453;28;20044;-75
2022/09/08 04:11:55;;;;;;;54.80;49.45;;;;;;;;;;5013271;28;20042;-75
2022/09/08 04:14:22;;;;;;;55.95;50.40;;;;;;;;;;5014208;28;20041;-75
2022/09/08 04:16:48;;;;;;;55.65;50.45;;;;;;;;;;4993562;28;20034;-75
2022/09/08 04:19:14;;;;;;;56.10;50.45;;;;;;;;;;5014229;28;20133;-75
2022/09/08 04:21:40;;;;;;;56.00;50.60;;;;;;;;;;5017285;28;20049;-75
2022/09/08 04:24:06;;;;;;;55.45;50.10;;;;;;;;;;5010280;28;20415;-75
2022/09/08 04:26:32;;;;;;;56.92;51.17;;;;;;;;;;5015036;28;20494;-75
2022/09/08 04:28:59;;;;;;;57.47;51.70;;;;;;;;;;5001187;28;20053;-75
2022/09/08 04:31:25;;;;;;;56.75;51.28;;;;;;;;;;4994837;28;20077;-75
2022/09/08 04:33:51;;;;;;;57.03;51.42;;;;;;;;;;4995399;28;20043;-75
2022/09/08 04:36:19;;;;;;;57.65;52.05;;;;;;;;;;4994135;28;20096;-75
2022/09/08 04:38:45;;;;;;;57.05;51.60;;;;;;;;;;4994666;28;20573;-75
2022/09/08 04:41:12;;;;;;;57.15;51.70;;;;;;;;;;4978996;28;20046;-75
2022/09/08 04:43:38;;;;;;;58.53;52.85;;;;;;;;;;5000044;28;20046;-76
2022/09/08 04:46:05;;;;;;;56.72;51.25;;;;;;;;;;4999432;28;20043;-75
2022/09/08 04:48:32;;;;;;;58.17;52.50;;;;;;;;;;4995037;28;20062;-75
2022/09/08 04:50:59;;;;;;;58.60;52.90;;;;;;;;;;4981006;28;20046;-75
2022/09/08 04:53:26;;;;;;;58.50;52.67;;;;;;;;;;4998736;28;20121;-75
2022/09/08 04:55:52;;;;;;;56.30;50.90;;;;;;;;;;4997098;28;20042;-75
2022/09/08 04:58:18;;;;;;;56.97;51.35;;;;;;;;;;4996500;28;20042;-74
2022/09/08 05:00:44;;;;;;;58.42;52.72;;;;;;;;;;4996509;28;20395;-75
2022/09/08 05:03:11;;;;;;;57.28;51.47;;;;;;;;;;4996185;28;20053;-74
2022/09/08 05:05:37;;;;;;;57.75;51.95;;;;;;;;;;4993204;28;20046;-75
2022/09/08 05:08:03;;;;;;;57.17;51.53;;;;;;;;;;4992012;28;20074;-75
2022/09/08 05:10:32;;;;;;;58.78;53.05;;;;;;;;;;4995201;28;20468;-75
2022/09/08 05:12:58;;;;;;;61.33;55.17;;;;;;;;;;4977862;28;20492;-75
2022/09/08 05:15:24;;;;;;;55.88;50.33;;;;;;;;;;4974371;28;20137;-75
2022/09/08 05:17:50;;;;;;;57.25;51.55;;;;;;;;;;4995171;28;20050;-74
2022/09/08 05:20:16;;;;;;;58.05;52.10;;;;;;;;;;4994843;28;20057;-75
2022/09/08 05:22:42;;;;;;;56.33;50.67;;;;;;;;;;4961949;28;20390;-75
2022/09/08 05:25:09;;;;;;;54.83;49.40;;;;;;;;;;4991801;28;20053;-75
2022/09/08 05:27:35;;;;;;;57.20;51.40;;;;;;;;;;4998396;28;20074;-75
2022/09/08 05:30:01;;;;;;;56.60;51.17;;;;;;;;;;5001775;28;20051;-75
2022/09/08 05:32:27;;;;;;;56.42;50.72;;;;;;;;;;5015146;28;20058;-75
2022/09/08 05:34:53;;;;;;;58.08;52.42;;;;;;;;;;4991940;28;20407;-75
2022/09/08 05:37:19;;;;;;;56.83;51.35;;;;;;;;;;5004676;28;20093;-75
2022/09/08 05:39:48;;;;;;;58.20;52.50;;;;;;;;;;5012083;28;20048;-76
2022/09/08 05:42:14;;;;;;;53.20;48.10;;;;;;;;;;5014940;28;20034;-75
2022/09/08 05:44:40;;;;;;;56.92;51.28;;;;;;;;;;4997634;28;20137;-75
2022/09/08 05:47:06;;;;;;;60.80;54.88;;;;;;;;;;5014237;28;20048;-75
2022/09/08 05:49:32;;;;;;;59.05;53.13;;;;;;;;;;5013556;28;20159;-75
2022/09/08 05:51:58;;;;;;;61.15;54.60;;;;;;;;;;5013351;28;20088;-75
2022/09/08 05:54:25;;;;;;;60.15;54.05;;;;;;;;;;4997916;28;20128;-76
2022/09/08 05:56:51;;;;;;;60.47;54.28;;;;;;;;;;4997459;28;20128;-75
2022/09/08 05:59:18;;;;;;;61.28;55.17;;;;;;;;;;5015375;28;20092;-75
2022/09/08 06:01:44;;;;;;;60.25;54.25;;;;;;;;;;4981578;28;20045;-75
2022/09/08 06:04:10;;;;;;;58.47;52.65;;;;;;;;;;4996080;28;20145;-75
2022/09/08 06:06:36;;;;;;;60.60;54.40;;;;;;;;;;5013024;28;20169;-75
2022/09/08 06:09:03;;;;;;;61.65;55.30;;;;;;;;;;4998362;28;20092;-75
2022/09/08 06:11:30;;;;;;;58.35;52.50;;;;;;;;;;5010547;28;20404;-75
2022/09/08 06:13:56;;;;;;;61.75;55.47;;;;;;;;;;5001422;28;20074;-75
2022/09/08 06:16:22;;;;;;;61.28;54.92;;;;;;;;;;5012868;28;20057;-76
2022/09/08 06:18:50;;;;;;;62.17;55.92;;;;;;;;;;5006275;28;20126;-75
2022/09/08 06:21:19;;;;;;;56.10;50.63;;;;;;;;;;5016799;28;20077;-75
2022/09/08 06:23:48;;;;;;;58.03;51.95;;;;;;;;;;5016065;28;20445;-76
2022/09/08 06:26:27;;;;;;;59.08;53.20;;;;;;;;;;5017580;28;20121;-75
2022/09/08 06:28:59;;;;;;;72.53;65.18;;;;;;;;;;5015456;28;20152;-76
2022/09/08 06:31:33;;;;;;;74.07;66.28;;;;;;;;;;5016753;28;20057;-76
2022/09/08 06:34:02;;;;;;;67.93;61.05;;;;;;;;;;5020501;28;20042;-75
2022/09/08 06:36:36;;;;;;;66.78;60.03;;;;;;;;;;5019327;28;20054;-75
2022/09/08 06:39:05;;;;;;;64.60;58.20;;;;;;;;;;5020223;28;20073;-75
2022/09/08 06:41:41;;;;;;;64.53;57.92;;;;;;;;;;5017018;28;20480;-75
2022/09/08 06:44:14;;;;;;;62.20;55.95;;;;;;;;;;5016905;28;20141;-75
2022/09/08 06:46:41;;;;;;;63.72;57.10;;;;;;;;;;5015689;28;20153;-75
2022/09/08 06:49:09;;;;;;;67.00;59.92;;;;;;;;;;5011401;28;20484;-75
2022/09/08 06:51:48;;;;;;;65.07;58.33;;;;;;;;;;4981231;28;20057;-75
2022/09/08 06:54:20;;;;;;;68.18;60.78;;;;;;;;;;5015908;28;20109;-75
2022/09/08 06:56:47;;;;;;;66.60;59.88;;;;;;;;;;5019797;28;20149;-74
2022/09/08 06:59:32;;;;;;;67.28;60.10;;;;;;;;;;5020707;28;20038;-74
2022/09/08 07:02:08;;;;;;;67.43;60.15;;;;;;;;;;4999437;28;20038;-74
2022/09/08 07:04:34;;;;;;;66.93;59.70;;;;;;;;;;4998248;28;20058;-73
2022/09/08 07:07:04;;;;;;;61.85;55.40;;;;;;;;;;5008224;28;20046;-74
2022/09/08 07:09:50;;;;;;;58.40;52.17;;;;;;;;;;5013348;28;20145;-74
2022/09/08 07:12:16;;;;;;;60.92;52.10;;;;;;;;;;5015626;28;20042;-73
2022/09/08 07:14:55;;;;;;;63.60;54.92;;;;;;;;;;5015875;28;20050;-73
2022/09/08 07:17:34;;;;;;;58.20;51.03;;;;;;;;;;5014629;28;20054;-73
2022/09/08 07:20:00;;;;;;;55.47;47.15;;;;;;;;;;5014208;28;20050;-73
2022/09/08 07:22:34;;;;;;;52.53;45.13;;;;;;;;;;5014420;28;20488;-73
2022/09/08 07:25:19;;;;;;;45.90;40.90;;;;;;;;;;5034434;28;20065;-74
2022/09/08 07:27:47;;;;;;;44.28;39.67;;;;;;;;;;5019549;28;20057;-74
2022/09/08 07:30:15;;;;;;;42.88;38.05;;;;;;;;;;5004738;28;20196;-77
2022/09/08 07:32:42;;;;;;;40.28;36.00;;;;;;;;;;5012459;28;20557;-73
2022/09/08 07:35:17;;;;;;;42.28;37.40;;;;;;;;;;5011443;28;20049;-74
2022/09/08 07:37:46;;;;;;;35.85;32.15;;;;;;;;;;5015374;28;20157;-73
2022/09/08 07:40:16;;;;;;;40.72;36.50;;;;;;;;;;5009578;28;20057;-74
2022/09/08 07:42:43;;;;;;;43.38;36.22;;;;;;;;;;5010430;28;20061;-74
2022/09/08 07:45:12;;;;;;;41.20;36.75;;;;;;;;;;5006661;28;20384;-74
2022/09/08 07:47:54;;;;;;;43.78;36.65;;;;;;;;;;5013047;28;20049;-74
2022/09/08 07:50:53;;;;;;;38.67;34.45;;;;;;;;;;4998848;28;20033;-74
2022/09/08 07:53:21;;;;;;;36.70;32.90;;;;;;;;;;5010709;28;20058;-74
2022/09/08 07:55:47;;;;;;;37.75;34.00;;;;;;;;;;5008685;28;20050;-74
2022/09/08 07:58:19;;;;;;;36.80;33.22;;;;;;;;;;5011812;28;20045;-74
2022/09/08 08:00:45;;;;;;;;;;;;;;;;;;5008657;28;20080;-74
2022/09/08 08:03:24;;;;;;;38.53;34.88;;;;;;;;;;5008327;28;20038;-73
2022/09/08 08:06:04;;;;;;;38.75;35.15;;;;;;;;;;5005541;28;20108;-74
2022/09/08 08:08:33;;;;;;;39.65;35.50;;;;;;;;;;4994817;28;20050;-74
2022/09/08 08:11:06;;;;;;;41.28;37.30;;;;;;;;;;4985168;28;20500;-74
2022/09/08 08:13:51;;;;;;;46.28;41.50;;;;;;;;;;5010973;28;20056;-74
2022/09/08 08:16:21;;;;;;;50.95;45.55;;;;;;;;;;5011053;28;20064;-74
2022/09/08 08:18:47;;;;;;;47.53;42.75;;;;;;;;;;5002366;28;20050;-75
2022/09/08 08:21:19;;;;;;;40.20;36.17;;;;;;;;;;5035258;28;20079;-75
2022/09/08 08:23:55;;;;;;;52.92;47.67;;;;;;;;;;5028022;28;20042;-75
2022/09/08 08:26:27;;;;;;;51.42;46.20;;;;;;;;;;5015368;28;20100;-74
2022/09/08 08:29:01;;;;;;;50.00;44.85;;;;;;;;;;5015316;28;20062;-74
2022/09/08 08:31:32;;;;;;;51.88;46.53;;;;;;;;;;5016023;28;20408;-74
2022/09/08 08:34:03;;;;;;;46.60;41.90;;;;;;;;;;5015927;28;20053;-74
2022/09/08 08:36:30;;;;;;;47.63;42.83;;;;;;;;;;5016948;28;20380;-75
2022/09/08 08:39:16;;;;;;;44.30;39.90;;;;;;;;;;5017140;28;21055;-74
2022/09/08 08:41:42;;;;;;;46.25;41.40;;;;;;;;;;5019728;28;20471;-75
2022/09/08 08:44:21;;;;;;;45.55;40.83;;;;;;;;;;4986746;28;20524;-74
2022/09/08 08:47:06;;;;;;;44.30;39.85;;;;;;;;;;5032252;28;20046;-75
2022/09/08 08:49:44;;;;;;;46.88;42.05;;;;;;;;;;5017560;28;20053;-74
2022/09/08 08:52:27;;;;;;;37.17;33.55;;;;;;;;;;5020082;28;20046;-76
2022/09/08 08:55:04;;;;;;;35.88;32.38;;;;;;;;;;5023488;28;20054;-74
2022/09/08 08:57:49;;;;;;;40.38;36.35;;;;;;;;;;5022260;28;20058;-75
2022/09/08 09:00:20;;;;;;;40.28;36.10;;;;;;;;;;5020528;28;20100;-74
2022/09/08 09:02:52;;;;;;;40.17;36.20;;;;;;;;;;5017985;28;20393;-74
2022/09/08 09:05:34;;;;;;;39.47;35.65;;;;;;;;;;5017272;28;20045;-75
2022/09/08 09:08:27;;;;;;;41.65;37.45;;;;;;;;;;4995565;28;20441;-75
2022/09/08 09:11:13;;;;;;;33.58;30.15;;;;;;;;;;4996177;28;20046;-75
2022/09/08 09:13:49;;;;;;;35.70;32.13;;;;;;;;;;4963852;28;20046;-75
2022/09/08 09:16:38;;;;;;;37.67;33.78;;;;;;;;;;5016076;28;20073;-74
2022/09/08 09:19:07;;;;;;;36.08;32.45;;;;;;;;;;5015698;28;20046;-75
2022/09/08 09:21:49;;;;;;;35.47;31.88;;;;;;;;;;5015753;28;20566;-74
2022/09/08 09:24:35;;;;;;;32.63;29.33;;;;;;;;;;5014455;28;20060;-74
2022/09/08 09:27:02;;;;;;;30.65;27.42;;;;;;;;;;5012675;28;20042;-74
2022/09/08 09:29:28;;;;;;;32.75;29.25;;;;;;;;;;4996337;28;20062;-75
2022/09/08 09:32:04;;;;;;;28.20;25.25;;;;;;;;;;5014898;28;20053;-75
2022/09/08 09:34:42;;;;;;;24.85;22.10;;;;;;;;;;4998958;28;20409;-74
2022/09/08 09:37:26;;;;;;;25.20;21.92;;;;;;;;;;5015881;28;20038;-74
2022/09/08 09:40:10;;;;;;;22.60;18.50;;;;;;;;;;5007790;28;20504;-74
2022/09/08 09:42:36;;;;;;;21.42;16.23;;;;;;;;;;5018365;28;20081;-74
2022/09/08 09:45:05;;;;;;;17.65;15.75;;;;;;;;;;5019590;28;20081;-74
2022/09/08 09:47:50;;;;;;;16.27;12.68;;;;;;;;;;5020028;28;20044;-75
2022/09/08 09:50:16;;;;;;;16.17;13.20;;;;;;;;;;5019651;28;20073;-75
2022/09/08 09:53:02;;;;;;;13.82;11.13;;;;;;;;;;5020500;28;20054;-74
2022/09/08 09:55:40;;;;;;;17.67;12.95;;;;;;;;;;5019876;28;20052;-74
2022/09/08 09:58:06;;;;;;;14.73;12.20;;;;;;;;;;4999636;28;20050;-74
2022/09/08 10:00:38;;;;;;;13.98;11.90;;;;;;;;;;4999177;28;20057;-74
2022/09/08 10:03:22;;;;;;;12.15;10.80;;;;;;;;;;5000519;28;20105;-75
2022/09/08 10:05:48;;;;;;;15.10;11.35;;;;;;;;;;5000234;28;20049;-74
2022/09/08 10:08:17;;;;;;;15.63;12.00;;;;;;;;;;5005063;28;20041;-74
2022/09/08 10:10:46;;;;;;;13.20;11.07;;;;;;;;;;5019782;28;20428;-74
2022/09/08 10:13:12;;;;;;;14.20;11.98;;;;;;;;;;5019164;28;20057;-74
2022/09/08 10:15:57;;;;;;;13.95;12.18;;;;;;;;;;5016182;28;20049;-74
2022/09/08 10:18:35;;;;;;;14.07;11.98;;;;;;;;;;5020468;28;20053;-74
2022/09/08 10:21:04;;;;;;;16.15;12.52;;;;;;;;;;5019962;28;20126;-74
2022/09/08 10:23:48;;;;;;;15.27;11.23;;;;;;;;;;5022131;28;20073;-74
2022/09/08 10:26:27;;;;;;;13.50;10.52;;;;;;;;;;5016279;28;20137;-74
2022/09/08 10:29:09;;;;;;;11.68;9.18;;;;;;;;;;5012699;28;20056;-74
2022/09/08 10:32:08;;;;;;;11.77;8.63;;;;;;;;;;5022806;28;20073;-74
2022/09/08 10:34:54;;;;;;;8.27;6.72;;;;;;;;;;4979683;28;20082;-74
2022/09/08 10:37:51;;;;;;;14.27;6.50;;;;;;;;;;4942907;28;20122;-75
2022/09/08 10:40:26;;;;;;;12.35;8.02;;;;;;;;;;4958953;28;20493;-74
2022/09/08 10:43:11;;;;;;;9.68;7.18;;;;;;;;;;4972536;28;20047;-74
2022/09/08 10:45:38;;;;;;;9.60;7.30;;;;;;;;;;4959249;28;20106;-74
2022/09/08 10:48:23;;;;;;;9.27;6.57;;;;;;;;;;4978757;28;20117;-74
2022/09/08 10:50:53;;;;;;;9.00;5.25;;;;;;;;;;4971103;28;20097;-74
2022/09/08 10:53:33;;;;;;;10.45;5.43;;;;;;;;;;4975322;28;20055;-75
2022/09/08 10:55:59;;;;;;;6.15;3.30;;;;;;;;;;4959147;28;20046;-74
2022/09/08 10:58:44;;;;;;;5.97;3.20;;;;;;;;;;4976052;28;20078;-74
2022/09/08 11:01:21;;;;;;;7.22;2.83;;;;;;;;;;4976538;28;20066;-74
2022/09/08 11:04:06;;;;;;;6.03;2.50;;;;;;;;;;4976677;28;20062;-74
2022/09/08 11:06:48;;;;;;;6.82;3.05;;;;;;;;;;4973412;28;20066;-74
2022/09/08 11:09:23;;;;;;;6.70;2.78;;;;;;;;;;4980881;28;20152;-74
2022/09/08 11:11:49;;;;;;;7.63;2.80;;;;;;;;;;5013530;28;20042;-74
2022/09/08 11:14:18;;;;;;;6.40;2.90;;;;;;;;;;5013420;28;20065;-75
2022/09/08 11:17:03;;;;;;;8.38;2.97;;;;;;;;;;5015224;28;20037;-74
2022/09/08 11:19:38;;;;;;;6.43;2.85;;;;;;;;;;5015265;28;20056;-74
2022/09/08 11:22:04;;;;;;;5.43;2.75;;;;;;;;;;5026941;28;20056;-74
2022/09/08 11:24:30;;;;;;;7.07;2.60;;;;;;;;;;5024271;28;20052;-74
2022/09/08 11:27:08;;;;;;;9.10;5.60;;;;;;;;;;5011444;28;20085;-74
2022/09/08 11:29:35;;;;;;;5.97;2.60;;;;;;;;;;5007653;28;20560;-74
2022/09/08 11:32:20;;;;;;;6.65;2.72;;;;;;;;;;5015314;28;20057;-75
2022/09/08 11:34:49;;;;;;;6.38;2.30;;;;;;;;;;5014092;28;20081;-74
2022/09/08 11:37:34;;;;;;;6.07;2.58;;;;;;;;;;5008978;28;20034;-74
2022/09/08 11:40:05;;;;;;;6.07;2.20;;;;;;;;;;5015207;28;20054;-75
2022/09/08 11:42:31;;;;;;;;;;;;;;;;;;5016374;28;20062;-75
2022/09/08 11:45:18;;;;;;;5.43;2.10;;;;;;;;;;4976366;28;19925;-74
2022/09/08 11:48:03;;;;;;;5.78;2.05;;;;;;;;;;5014024;28;20045;-75
2022/09/08 11:50:36;;;;;;;5.75;1.85;;;;;;;;;;5036239;28;20037;-74
2022/09/08 11:53:15;;;;;;;5.70;2.28;;;;;;;;;;5017561;28;20037;-75
2022/09/08 11:55:51;;;;;;;5.28;2.28;;;;;;;;;;5015503;28;20052;-74
2022/09/08 11:58:24;;;;;;;4.40;2.08;;;;;;;;;;5012893;28;20046;-74
2022/09/08 12:01:04;;;;;;;6.43;2.10;;;;;;;;;;5016997;28;20519;-74
2022/09/08 12:03:34;;;;;;;4.53;1.97;;;;;;;;;;5018901;28;20492;-74
2022/09/08 12:06:06;;;;;;;5.90;1.92;;;;;;;;;;5001461;28;20491;-74
2022/09/08 12:08:51;;;;;;;6.20;2.13;;;;;;;;;;5018937;28;20054;-75
2022/09/08 12:11:32;;;;;;;6.25;2.20;;;;;;;;;;5018588;28;20065;-74
2022/09/08 12:14:05;;;;;;;8.05;2.60;;;;;;;;;;5037054;28;20049;-74
2022/09/08 12:16:43;;;;;;;5.97;2.45;;;;;;;;;;5001808;28;20046;-74
2022/09/08 12:19:12;;;;;;;5.90;2.60;;;;;;;;;;5013972;28;20057;-74
2022/09/08 12:21:39;;;;;;;6.18;2.28;;;;;;;;;;5021900;28;20052;-74
2022/09/08 12:24:05;;;;;;;5.60;2.63;;;;;;;;;;5025853;28;20049;-74
2022/09/08 12:26:54;;;;;;;5.28;2.90;;;;;;;;;;5021612;28;20038;-74
2022/09/08 12:29:38;;;;;;;5.22;2.38;;;;;;;;;;4964289;28;20429;-74
2022/09/08 12:32:10;;;;;;;6.65;2.30;;;;;;;;;;4980892;28;20054;-74
2022/09/08 12:34:39;;;;;;;5.13;2.53;;;;;;;;;;4982264;28;20066;-74
2022/09/08 12:37:14;;;;;;;7.22;2.72;;;;;;;;;;4982595;28;20035;-74
2022/09/08 12:40:00;;;;;;;7.30;2.75;;;;;;;;;;4973303;28;20059;-75
2022/09/08 12:42:38;;;;;;;6.57;2.83;;;;;;;;;;4985281;28;20046;-74
2022/09/08 12:45:13;;;;;;;5.18;2.67;;;;;;;;;;4982364;28;20075;-74
2022/09/08 12:47:51;;;;;;;5.68;2.72;;;;;;;;;;4985714;28;20058;-75
2022/09/08 12:50:21;;;;;;;6.75;2.60;;;;;;;;;;4978091;28;20042;-75
2022/09/08 12:52:47;;;;;;;5.63;2.55;;;;;;;;;;4979966;28;20071;-74
2022/09/08 12:55:39;;;;;;;6.13;2.60;;;;;;;;;;4973460;28;20082;-73
2022/09/08 12:58:05;;;;;;;6.03;2.80;;;;;;;;;;4979354;28;20058;-73
2022/09/08 13:00:35;;;;;;;6.75;2.70;;;;;;;;;;4978559;28;20073;-73
2022/09/08 13:03:07;;;;;;;5.15;2.75;;;;;;;;;;4986492;28;20059;-74
2022/09/08 13:05:33;;;;;;;7.82;3.30;;;;;;;;;;4973601;28;20046;-74
2022/09/08 13:08:15;;;;;;;6.72;2.80;;;;;;;;;;5026941;28;20034;-73
2022/09/08 13:10:44;;;;;;;5.60;2.55;;;;;;;;;;5035013;28;20038;-74
2022/09/08 13:13:28;;;;;;;6.07;3.40;;;;;;;;;;5030265;28;20148;-73
2022/09/08 13:15:58;;;;;;;6.38;3.35;;;;;;;;;;5030155;28;20050;-74
2022/09/08 13:18:24;;;;;;;7.80;3.70;;;;;;;;;;5029281;28;20041;-74
2022/09/08 13:20:52;;;;;;;5.93;3.78;;;;;;;;;;5028000;28;20099;-73
2022/09/08 13:23:29;;;;;;;6.68;3.78;;;;;;;;;;5030245;28;20050;-74
2022/09/08 13:26:16;;;;;;;8.63;4.53;;;;;;;;;;5020315;28;20057;-74
2022/09/08 13:28:45;;;;;;;7.97;5.38;;;;;;;;;;5033700;28;20080;-74
2022/09/08 13:31:23;;;;;;;8.30;5.78;;;;;;;;;;5033625;28;20100;-74
2022/09/08 13:34:08;;;;;;;9.32;6.80;;;;;;;;;;5035230;28;20053;-74
2022/09/08 13:36:41;;;;;;;8.07;5.93;;;;;;;;;;5041868;28;20033;-74
2022/09/08 13:39:23;;;;;;;8.02;5.78;;;;;;;;;;5018249;28;20046;-74
2022/09/08 13:41:49;;;;;;;;;;;;;;;;;;5037148;28;20034;-73
2022/09/08 13:44:38;;;;;;;9.63;7.05;;;;;;;;;;5036381;28;19988;-74
2022/09/08 13:47:10;;;;;;;15.13;8.02;;;;;;;;;;5037281;28;20042;-74
2022/09/08 13:49:51;;;;;;;10.40;7.63;;;;;;;;;;5023261;28;20034;-74
2022/09/08 13:52:36;;;;;;;10.77;7.30;;;;;;;;;;5037382;28;20093;-73
2022/09/08 13:55:16;;;;;;;10.85;7.35;;;;;;;;;;5036977;28;20049;-74
2022/09/08 13:58:05;;;;;;;9.43;7.10;;;;;;;;;;5036104;28;20022;-74
2022/09/08 14:00:51;;;;;;;10.70;7.32;;;;;;;;;;4965389;29;20047;-74
2022/09/08 14:03:18;;;;;;;11.25;8.57;;;;;;;;;;4976562;28;20042;-74
2022/09/08 14:05:46;;;;;;;9.75;8.75;;;;;;;;;;4968605;28;20136;-74
2022/09/08 14:08:21;;;;;;;11.23;8.55;;;;;;;;;;4950063;28;20059;-74
2022/09/08 14:10:57;;;;;;;13.25;8.30;;;;;;;;;;4960290;29;20023;-74
2022/09/08 14:13:36;;;;;;;11.82;7.95;;;;;;;;;;4976938;28;20031;-74
2022/09/08 14:16:10;;;;;;;13.18;8.68;;;;;;;;;;4961074;28;20058;-74
2022/09/08 14:18:56;;;;;;;14.10;9.25;;;;;;;;;;4977586;28;20069;-74
2022/09/08 14:21:40;;;;;;;10.63;8.35;;;;;;;;;;4981094;28;20094;-74
2022/09/08 14:24:12;;;;;;;11.07;8.93;;;;;;;;;;4975996;29;20111;-74
2022/09/08 14:26:42;;;;;;;11.82;9.18;;;;;;;;;;4976112;28;20061;-74
2022/09/08 14:29:10;;;;;;;11.80;8.13;;;;;;;;;;4991202;28;20085;-74
2022/09/08 14:31:40;;;;;;;10.48;8.93;;;;;;;;;;4994321;28;20042;-75
2022/09/08 14:34:33;;;;;;;12.30;9.15;;;;;;;;;;4994768;28;20030;-74
2022/09/08 14:37:12;;;;;;;10.13;8.77;;;;;;;;;;4988375;28;20062;-74
2022/09/08 14:39:51;;;;;;;10.98;9.45;;;;;;;;;;5011288;28;20057;-74
2022/09/08 14:42:46;;;;;;;9.23;8.05;;;;;;;;;;5003750;28;20074;-74
2022/09/08 14:45:17;;;;;;;12.00;9.70;;;;;;;;;;4970684;28;20054;-74
2022/09/08 14:47:55;;;;;;;14.37;9.50;;;;;;;;;;4955350;29;20069;-74
2022/09/08 14:50:24;;;;;;;11.38;8.45;;;;;;;;;;4965427;28;20448;-74
2022/09/08 14:52:56;;;;;;;14.98;9.73;;;;;;;;;;4966326;29;20047;-75
2022/09/08 14:55:25;;;;;;;14.43;9.80;;;;;;;;;;4958727;29;20075;-74